Time;durP1;ratioP1;P1;durP2;ratioP2;P2;SDS_P1;SDS_P2;PMS_P1;PMS_P2;Temp;Humidity;BMP_temperature;BMP_pressure;BME280_temperature;BME280_humidity;BME280_pressure;Samples;Min_cycle;Max_cycle;Signal;HPM_P1;HPM_P2
2023/08/10 00:01:56;;;;;;;1.00;1.00;;;;;;;19.58;nan;100931.97;4982925;28;20036;-76
2023/08/10 00:04:22;;;;;;;1.00;1.00;;;;;;;19.58;nan;100937.22;4995026;28;20030;-77
2023/08/10 00:06:47;;;;;;;1.10;1.10;;;;;;;19.58;nan;100931.97;4984960;28;20072;-77
2023/08/10 00:09:12;;;;;;;1.58;1.15;;;;;;;19.58;nan;100933.72;4979792;28;20038;-77
2023/08/10 00:11:41;;;;;;;1.17;1.08;;;;;;;19.58;nan;100931.97;4981184;28;20030;-76
2023/08/10 00:14:07;;;;;;;0.80;0.80;;;;;;;19.58;nan;100917.91;4981061;28;20036;-75
2023/08/10 00:16:33;;;;;;;1.23;1.13;;;;;;;19.57;nan;100924.97;4979922;28;20540;-75
2023/08/10 00:18:59;;;;;;;0.95;0.95;;;;;;;19.58;nan;100928.44;4979931;28;20034;-76
2023/08/10 00:21:25;;;;;;;1.00;1.00;;;;;;;19.58;nan;100928.44;4979518;28;20945;-77
2023/08/10 00:23:50;;;;;;;1.27;1.10;;;;;;;19.58;nan;100933.72;4977875;28;20029;-75
2023/08/10 00:26:16;;;;;;;1.00;0.82;;;;;;;19.58;nan;100923.19;4988270;28;20083;-77
2023/08/10 00:28:41;;;;;;;0.90;0.90;;;;;;;19.57;nan;100932.88;4981335;28;20018;-76
2023/08/10 00:31:07;;;;;;;0.90;0.90;;;;;;;19.57;nan;100932.03;4980729;28;20122;-77
2023/08/10 00:33:32;;;;;;;0.80;0.80;;;;;;;19.57;nan;100926.78;4984482;28;20026;-76
2023/08/10 00:35:59;;;;;;;0.90;0.90;;;;;;;19.58;nan;100928.44;4988371;28;20810;-76
2023/08/10 00:38:24;;;;;;;1.00;1.00;;;;;;;19.57;nan;100926.78;4979948;28;20038;-77
2023/08/10 00:40:49;;;;;;;1.00;0.80;;;;;;;19.57;nan;100932.03;4981906;28;20085;-77
2023/08/10 00:43:15;;;;;;;1.10;1.10;;;;;;;19.57;nan;100927.63;4977924;28;20057;-77
2023/08/10 00:45:40;;;;;;;1.17;0.93;;;;;;;19.57;nan;100932.88;4976755;28;20137;-76
2023/08/10 00:48:06;;;;;;;1.10;0.90;;;;;;;19.57;nan;100932.03;4981460;28;20041;-76
2023/08/10 00:50:31;;;;;;;0.80;0.80;;;;;;;19.58;nan;100936.34;4981784;28;21311;-77
2023/08/10 00:52:56;;;;;;;0.90;0.90;;;;;;;19.58;nan;100933.72;4982249;28;20037;-77
2023/08/10 00:55:22;;;;;;;0.82;0.82;;;;;;;19.56;nan;100936.44;4982118;28;20041;-76
2023/08/10 00:57:47;;;;;;;0.90;0.90;;;;;;;19.57;nan;100934.66;4979838;28;20045;-77
2023/08/10 01:00:13;;;;;;;1.10;1.00;;;;;;;19.57;nan;100927.63;4980335;28;20515;-76
2023/08/10 01:02:39;;;;;;;0.80;0.80;;;;;;;19.57;nan;100929.41;4980489;28;20354;-76
2023/08/10 01:05:11;;;;;;;0.70;0.70;;;;;;;19.57;nan;100926.78;4987781;28;20752;-77
2023/08/10 01:08:05;;;;;;;0.90;0.90;;;;;;;19.57;nan;100932.03;4982083;28;20033;-77
2023/08/10 01:10:47;;;;;;;0.80;0.80;;;;;;;19.57;nan;100932.03;4984378;28;20038;-76
2023/08/10 01:13:20;;;;;;;1.00;1.00;;;;;;;19.57;nan;100934.66;4979861;28;20026;-75
2023/08/10 01:15:49;;;;;;;1.00;1.00;;;;;;;19.57;nan;100938.16;4981120;28;20080;-77
2023/08/10 01:18:16;;;;;;;0.90;0.90;;;;;;;19.57;nan;100934.66;4982608;28;20030;-77
2023/08/10 01:20:43;;;;;;;1.33;0.90;;;;;;;19.56;nan;100931.16;4967015;28;20029;-76
2023/08/10 01:23:40;;;;;;;0.98;0.88;;;;;;;19.57;nan;100939.94;4978548;28;20490;-77
2023/08/10 01:26:05;;;;;;;0.90;0.90;;;;;;;19.55;nan;100940.00;4970456;28;20034;-75
2023/08/10 01:28:34;;;;;;;1.00;1.00;;;;;;;19.56;nan;100933.78;4982609;28;20034;-76
2023/08/10 01:31:00;;;;;;;0.80;0.80;;;;;;;19.56;nan;100928.53;4966469;28;20052;-76
2023/08/10 01:33:27;;;;;;;1.00;1.00;;;;;;;19.55;nan;100929.47;4992652;28;20038;-76
2023/08/10 01:39:15;;;;;;;0.63;0.63;;;;;;;19.55;nan;100932.09;4983268;28;20045;-76
2023/08/10 01:41:40;;;;;;;1.15;1.10;;;;;;;19.55;nan;100932.09;4986625;28;20022;-77
2023/08/10 01:44:06;;;;;;;1.10;1.10;;;;;;;19.56;nan;100936.44;4994349;28;20120;-77
2023/08/10 01:46:52;;;;;;;0.93;0.93;;;;;;;19.57;nan;100926.78;4983079;28;20034;-75
2023/08/10 01:49:20;;;;;;;0.85;0.85;;;;;;;19.56;nan;100930.31;4983264;28;20029;-76
2023/08/10 01:51:46;;;;;;;1.27;1.05;;;;;;;19.55;nan;100929.47;4983436;28;20041;-76
2023/08/10 01:54:12;;;;;;;0.80;0.80;;;;;;;19.56;nan;100940.84;4992065;28;20048;-75
2023/08/10 01:56:38;;;;;;;1.20;1.10;;;;;;;19.55;nan;100944.44;4986763;28;20030;-76
2023/08/10 01:59:03;;;;;;;0.88;0.88;;;;;;;19.55;nan;100947.91;4982680;28;20041;-77
2023/08/10 02:01:29;;;;;;;0.90;0.90;;;;;;;19.56;nan;100946.13;4983183;28;20038;-77
2023/08/10 02:03:54;;;;;;;0.85;0.85;;;;;;;19.56;nan;100951.38;4977916;28;20058;-76
2023/08/10 02:06:19;;;;;;;0.82;0.82;;;;;;;19.57;nan;100958.38;4989224;28;20025;-77
2023/08/10 02:08:45;;;;;;;1.00;1.00;;;;;;;19.56;nan;100948.75;4982376;28;21554;-76
2023/08/10 02:11:10;;;;;;;0.80;0.80;;;;;;;19.56;nan;100948.75;4982491;28;20513;-77
2023/08/10 02:13:35;;;;;;;1.00;1.00;;;;;;;19.55;nan;100949.69;4978883;28;20069;-76
2023/08/10 02:16:01;;;;;;;0.90;0.90;;;;;;;19.55;nan;100953.19;4985427;28;20144;-76
2023/08/10 02:18:27;;;;;;;0.80;0.80;;;;;;;19.55;nan;100944.44;4982850;28;20122;-76
2023/08/10 02:20:52;;;;;;;0.80;0.80;;;;;;;19.55;nan;100941.81;4982965;28;20120;-77
2023/08/10 02:23:17;;;;;;;1.00;1.00;;;;;;;19.55;nan;100944.44;4992884;28;20365;-76
2023/08/10 02:25:43;;;;;;;1.00;1.00;;;;;;;19.55;nan;100941.81;4992283;28;20852;-76
2023/08/10 02:28:08;;;;;;;0.85;0.85;;;;;;;19.55;nan;100944.44;4981929;28;20072;-77
2023/08/10 02:30:34;;;;;;;1.00;1.00;;;;;;;19.54;nan;100940.97;4981510;28;20121;-78
2023/08/10 02:32:59;;;;;;;0.82;0.82;;;;;;;19.55;nan;100941.81;4992203;28;20026;-77
2023/08/10 02:35:24;;;;;;;0.70;0.70;;;;;;;19.53;nan;100946.34;4987668;28;20037;-76
2023/08/10 02:37:50;;;;;;;1.05;1.05;;;;;;;19.54;nan;100937.47;4980746;28;20150;-77
2023/08/10 02:40:15;;;;;;;1.05;1.05;;;;;;;19.54;nan;100943.59;4980751;28;20243;-77
2023/08/10 02:42:42;;;;;;;0.85;0.80;;;;;;;19.54;nan;100937.47;4988597;28;20038;-77
2023/08/10 02:45:08;;;;;;;0.82;0.82;;;;;;;19.54;nan;100933.06;4966581;28;20030;-77
2023/08/10 02:47:34;;;;;;;0.85;0.85;;;;;;;19.54;nan;100929.56;4981576;28;20089;-77
2023/08/10 02:50:00;;;;;;;0.85;0.85;;;;;;;19.53;nan;100935.78;4981744;28;20037;-78
2023/08/10 02:52:25;;;;;;;0.70;0.68;;;;;;;19.54;nan;100940.13;4981971;28;20041;-77
2023/08/10 02:54:50;;;;;;;1.55;0.93;;;;;;;19.53;nan;100936.63;4977086;28;20041;-77
2023/08/10 02:57:16;;;;;;;0.90;0.90;;;;;;;19.54;nan;100937.47;4981335;28;20035;-77
2023/08/10 02:59:41;;;;;;;1.08;1.00;;;;;;;19.54;nan;100937.47;4980867;28;20640;-77
2023/08/10 03:02:06;;;;;;;1.00;0.88;;;;;;;19.54;nan;100945.38;4985461;28;20026;-77
2023/08/10 03:04:32;;;;;;;0.70;0.70;;;;;;;19.54;nan;100943.59;4983236;28;20061;-76
2023/08/10 03:06:57;;;;;;;1.52;1.02;;;;;;;19.54;nan;100948.84;4983747;28;20144;-77
2023/08/10 03:09:23;;;;;;;0.88;0.88;;;;;;;19.54;nan;100950.66;4981968;28;20084;-77
2023/08/10 03:11:48;;;;;;;0.80;0.80;;;;;;;19.53;nan;100946.34;4985958;28;20362;-77
2023/08/10 03:14:13;;;;;;;0.77;0.77;;;;;;;19.53;nan;100946.34;4994406;28;20144;-76
2023/08/10 03:16:38;;;;;;;1.05;1.02;;;;;;;19.52;nan;100957.81;4985664;28;20081;-76
2023/08/10 03:19:04;;;;;;;0.90;0.90;;;;;;;19.53;nan;100951.59;4983457;28;20040;-76
2023/08/10 03:21:29;;;;;;;0.80;0.80;;;;;;;19.52;nan;100956.03;4981042;28;20125;-77
2023/08/10 03:23:55;;;;;;;0.95;0.88;;;;;;;19.52;nan;100957.81;4976133;28;20034;-77
2023/08/10 03:26:20;;;;;;;0.88;0.88;;;;;;;19.52;nan;100949.91;4986463;28;20032;-76
2023/08/10 03:28:46;;;;;;;0.90;0.90;;;;;;;19.54;nan;100958.56;4983517;28;20034;-76
2023/08/10 03:32:04;;;;;;;0.95;0.80;;;;;;;19.52;nan;100960.44;4981486;28;20087;-76
2023/08/10 03:34:30;;;;;;;1.10;0.93;;;;;;;19.53;nan;100954.22;4992839;28;20482;-75
2023/08/10 03:36:55;;;;;;;0.70;0.70;;;;;;;19.52;nan;100960.44;4984269;28;20037;-76
2023/08/10 03:39:21;;;;;;;0.85;0.85;;;;;;;19.52;nan;100955.19;4981954;28;20679;-75
2023/08/10 03:41:52;;;;;;;0.65;0.65;;;;;;;19.52;nan;100955.19;4980970;28;20068;-75
2023/08/10 03:44:46;;;;;;;0.80;0.80;;;;;;;19.51;nan;100948.19;4978017;28;20041;-76
2023/08/10 03:47:11;;;;;;;0.60;0.60;;;;;;;19.51;nan;100949.06;4980368;28;20038;-75
2023/08/10 03:49:36;;;;;;;0.80;0.80;;;;;;;19.51;nan;100958.72;4979581;28;20022;-76
2023/08/10 03:52:02;;;;;;;0.82;0.82;;;;;;;19.51;nan;100959.59;4979928;28;20762;-76
2023/08/10 03:54:29;;;;;;;0.70;0.70;;;;;;;19.52;nan;100960.44;4973968;28;20683;-77
2023/08/10 03:56:54;;;;;;;0.82;0.82;;;;;;;19.51;nan;100961.34;4982223;28;20780;-76
2023/08/10 03:59:19;;;;;;;0.70;0.70;;;;;;;19.50;nan;100965.78;4979458;28;20031;-77
2023/08/10 04:01:45;;;;;;;0.90;0.90;;;;;;;19.52;nan;100965.72;4981184;28;20041;-76
2023/08/10 04:04:11;;;;;;;1.05;0.82;;;;;;;19.51;nan;100969.25;4976962;28;20030;-76
2023/08/10 04:06:37;;;;;;;0.65;0.65;;;;;;;19.52;nan;100976.25;4978576;28;20113;-76
2023/08/10 04:09:04;;;;;;;0.63;0.63;;;;;;;19.51;nan;100969.25;4981384;28;20057;-77
2023/08/10 04:11:30;;;;;;;0.98;0.98;;;;;;;19.50;nan;100978.09;4979407;28;20060;-76
2023/08/10 04:13:55;;;;;;;0.80;0.80;;;;;;;19.50;nan;100973.69;4990638;28;20037;-77
2023/08/10 04:16:21;;;;;;;0.80;0.80;;;;;;;19.50;nan;100973.69;4977217;28;20034;-75
2023/08/10 04:18:47;;;;;;;0.88;0.88;;;;;;;19.51;nan;100969.25;4981837;28;20546;-76
2023/08/10 04:21:13;;;;;;;0.70;0.70;;;;;;;19.50;nan;100976.31;4981134;28;20588;-77
2023/08/10 04:23:40;;;;;;;0.90;0.90;;;;;;;19.50;nan;100978.09;4993930;28;20038;-77
2023/08/10 04:26:07;;;;;;;0.70;0.70;;;;;;;19.50;nan;100991.28;4988286;28;20038;-77
2023/08/10 04:28:32;;;;;;;0.75;0.75;;;;;;;19.50;nan;100981.59;4981145;28;20030;-76
2023/08/10 04:30:57;;;;;;;0.70;0.70;;;;;;;19.50;nan;100984.22;4978857;28;20041;-77
2023/08/10 04:33:23;;;;;;;0.90;0.90;;;;;;;19.49;nan;100984.31;4981893;28;20026;-76
2023/08/10 04:35:48;;;;;;;0.70;0.70;;;;;;;19.49;nan;100995.69;4983902;28;20040;-77
2023/08/10 04:38:14;;;;;;;0.80;0.80;;;;;;;19.51;nan;101003.50;4982537;28;20517;-76
2023/08/10 04:40:40;;;;;;;0.70;0.70;;;;;;;19.49;nan;100998.34;4984327;28;20405;-76
2023/08/10 04:43:06;;;;;;;0.70;0.70;;;;;;;19.50;nan;100999.19;4993828;28;20025;-77
2023/08/10 04:45:31;;;;;;;0.60;0.60;;;;;;;19.50;nan;101009.72;4982896;28;20172;-76
2023/08/10 04:47:57;;;;;;;0.80;0.80;;;;;;;19.50;nan;101007.91;4984718;28;20092;-76
2023/08/10 04:50:23;;;;;;;0.73;0.73;;;;;;;19.50;nan;101000.03;4983922;28;20040;-76
2023/08/10 04:52:48;;;;;;;0.85;0.73;;;;;;;19.49;nan;101006.22;4983714;28;20426;-76
2023/08/10 04:55:14;;;;;;;0.88;0.88;;;;;;;19.49;nan;101006.22;4978424;28;20130;-75
2023/08/10 04:57:39;;;;;;;0.80;0.80;;;;;;;19.50;nan;101001.81;4967066;28;20802;-76
2023/08/10 05:00:09;;;;;;;0.73;0.70;;;;;;;19.49;nan;101008.03;4984224;28;20762;-75
2023/08/10 05:02:35;;;;;;;1.10;1.00;;;;;;;19.49;nan;101006.22;4989133;28;20033;-75
2023/08/10 05:05:01;;;;;;;1.02;1.02;;;;;;;19.48;nan;100999.28;4981326;28;20034;-76
2023/08/10 05:07:27;;;;;;;0.77;0.77;;;;;;;19.49;nan;101008.03;4983892;28;20034;-76
2023/08/10 05:09:52;;;;;;;0.80;0.80;;;;;;;19.49;nan;101000.13;4984770;28;20061;-76
2023/08/10 05:12:18;;;;;;;0.93;0.93;;;;;;;19.49;nan;100998.34;4979098;28;20064;-77
2023/08/10 05:14:44;;;;;;;0.73;0.73;;;;;;;19.48;nan;100993.16;4987542;28;20455;-77
2023/08/10 05:17:10;;;;;;;0.80;0.80;;;;;;;19.49;nan;101005.38;4973212;28;20029;-76
2023/08/10 05:19:35;;;;;;;0.70;0.70;;;;;;;19.49;nan;101011.50;4983505;28;20511;-74
2023/08/10 05:22:01;;;;;;;0.80;0.80;;;;;;;19.48;nan;101012.44;4986475;28;20148;-76
2023/08/10 05:24:26;;;;;;;0.70;0.70;;;;;;;19.48;nan;101017.72;4978855;28;20072;-77
2023/08/10 05:26:52;;;;;;;1.05;1.00;;;;;;;19.49;nan;101022.03;4987802;28;20609;-76
2023/08/10 05:29:17;;;;;;;0.65;0.65;;;;;;;19.48;nan;101016.88;4981515;28;20030;-76
2023/08/10 05:31:42;;;;;;;0.80;0.80;;;;;;;19.49;nan;101029.94;4984724;28;20036;-75
2023/08/10 05:34:08;;;;;;;0.95;0.85;;;;;;;19.49;nan;101026.47;4996748;28;20051;-76
2023/08/10 05:36:33;;;;;;;1.00;0.85;;;;;;;19.48;nan;101025.63;4986865;28;20375;-77
2023/08/10 05:38:58;;;;;;;0.90;0.90;;;;;;;19.49;nan;101034.34;4982921;28;20666;-76
2023/08/10 05:41:29;;;;;;;0.80;0.80;;;;;;;19.48;nan;101032.66;4980377;28;20112;-74
2023/08/10 05:43:54;;;;;;;0.63;0.63;;;;;;;19.49;nan;101039.63;4978656;28;20868;-75
2023/08/10 05:46:20;;;;;;;0.88;0.88;;;;;;;19.48;nan;101036.16;4980178;28;20070;-76
2023/08/10 05:48:46;;;;;;;0.90;0.90;;;;;;;19.48;nan;101037.94;4983260;28;20034;-77
2023/08/10 05:51:11;;;;;;;0.80;0.80;;;;;;;19.49;nan;101044.91;4965048;28;20029;-76
2023/08/10 05:53:37;;;;;;;0.80;0.80;;;;;;;19.48;nan;101043.19;4978222;28;20749;-77
2023/08/10 05:56:03;;;;;;;0.80;0.80;;;;;;;19.48;nan;101048.47;4978511;28;20101;-77
2023/08/10 05:58:28;;;;;;;0.70;0.70;;;;;;;19.49;nan;101050.16;4981251;28;20066;-76
2023/08/10 06:00:54;;;;;;;0.73;0.73;;;;;;;19.48;nan;101057.22;4983065;28;20034;-76
2023/08/10 06:03:19;;;;;;;0.70;0.70;;;;;;;19.48;nan;101046.69;4978601;28;20038;-76
2023/08/10 06:05:45;;;;;;;0.70;0.70;;;;;;;19.47;nan;101052.06;4980159;28;20066;-77
2023/08/10 06:08:11;;;;;;;0.70;0.70;;;;;;;19.48;nan;101057.22;4983622;28;20037;-76
2023/08/10 06:10:36;;;;;;;0.70;0.70;;;;;;;19.48;nan;101054.59;4981811;28;20044;-76
2023/08/10 06:13:02;;;;;;;0.70;0.70;;;;;;;19.47;nan;101057.31;4992738;28;20034;-77
2023/08/10 06:15:27;;;;;;;0.70;0.70;;;;;;;19.49;nan;101066.81;4983118;28;20121;-76
2023/08/10 06:17:52;;;;;;;0.60;0.60;;;;;;;19.48;nan;101061.63;4980993;28;20034;-76
2023/08/10 06:20:21;;;;;;;0.90;0.90;;;;;;;19.48;nan;101061.63;4980764;28;20030;-75
2023/08/10 06:22:47;;;;;;;0.70;0.70;;;;;;;19.48;nan;101059.00;4991592;28;20042;-74
2023/08/10 06:25:13;;;;;;;0.73;0.73;;;;;;;19.49;nan;101063.31;4993698;28;20037;-76
2023/08/10 06:27:39;;;;;;;1.10;1.10;;;;;;;19.48;nan;101061.63;4981934;28;20026;-76
2023/08/10 06:30:05;;;;;;;0.70;0.70;;;;;;;19.48;nan;101054.59;4982217;28;20056;-77
2023/08/10 06:32:31;;;;;;;0.65;0.65;;;;;;;19.47;nan;101058.16;4978054;28;20022;-76
2023/08/10 06:34:57;;;;;;;0.90;0.90;;;;;;;19.48;nan;101065.13;4993097;28;20593;-76
2023/08/10 06:37:22;;;;;;;0.70;0.70;;;;;;;19.48;nan;101064.28;4964751;28;21058;-77
2023/08/10 06:39:48;;;;;;;0.70;0.70;;;;;;;19.49;nan;101065.97;4982462;28;20474;-76
2023/08/10 06:42:14;;;;;;;0.90;0.90;;;;;;;19.48;nan;101065.13;4986712;28;20088;-76
2023/08/10 06:44:39;;;;;;;0.60;0.60;;;;;;;19.48;nan;101072.19;4985522;28;20659;-76
2023/08/10 06:47:05;;;;;;;0.70;0.70;;;;;;;19.47;nan;101073.13;4979062;28;20029;-76
2023/08/10 06:49:30;;;;;;;0.55;0.55;;;;;;;19.48;nan;101077.44;4982733;28;20133;-75
2023/08/10 06:51:55;;;;;;;0.70;0.70;;;;;;;19.47;nan;101076.59;4980671;28;20034;-75
2023/08/10 06:54:21;;;;;;;0.82;0.80;;;;;;;19.48;nan;101074.81;4974090;28;20057;-75
2023/08/10 06:56:46;;;;;;;0.70;0.70;;;;;;;19.47;nan;101073.97;4978189;28;20038;-75
2023/08/10 06:59:12;;;;;;;0.88;0.88;;;;;;;19.49;nan;101076.50;4976464;28;20026;-75
2023/08/10 07:01:38;;;;;;;0.80;0.80;;;;;;;19.48;nan;101072.19;4983081;28;20034;-75
2023/08/10 07:04:04;;;;;;;0.70;0.70;;;;;;;19.48;nan;101077.44;4985572;28;20837;-75
2023/08/10 07:06:30;;;;;;;0.60;0.60;;;;;;;19.48;nan;101074.81;4980228;28;20320;-74
2023/08/10 07:08:55;;;;;;;0.75;0.75;;;;;;;19.47;nan;101068.69;4981245;28;20030;-75
2023/08/10 07:11:21;;;;;;;0.73;0.73;;;;;;;19.47;nan;101073.13;4982263;28;20087;-74
2023/08/10 07:13:46;;;;;;;0.80;0.80;;;;;;;19.47;nan;101065.22;4988816;28;20041;-74
2023/08/10 07:16:12;;;;;;;0.65;0.65;;;;;;;19.48;nan;101070.38;4978270;28;20439;-75
2023/08/10 07:18:38;;;;;;;0.70;0.70;;;;;;;19.49;nan;101065.97;4981798;28;20037;-74
2023/08/10 07:21:04;;;;;;;0.73;0.73;;;;;;;19.48;nan;101069.53;4981480;28;20057;-74
2023/08/10 07:23:30;;;;;;;0.75;0.75;;;;;;;19.48;nan;101067.75;4993787;28;20363;-75
2023/08/10 07:25:55;;;;;;;0.80;0.80;;;;;;;19.49;nan;101073.84;4980739;28;20041;-75
2023/08/10 07:28:23;;;;;;;0.80;0.80;;;;;;;19.48;nan;101073.00;4981247;28;20025;-74
2023/08/10 07:30:52;;;;;;;0.68;0.68;;;;;;;19.49;nan;101074.72;4982164;28;20518;-75
2023/08/10 07:33:17;;;;;;;0.60;0.60;;;;;;;19.49;nan;101065.97;4983905;28;20029;-76
2023/08/10 07:35:44;;;;;;;0.80;0.80;;;;;;;19.49;nan;101065.97;4990541;28;20048;-75
2023/08/10 07:38:10;;;;;;;0.90;0.90;;;;;;;19.49;nan;101076.50;4982464;28;20541;-74
2023/08/10 07:40:36;;;;;;;0.70;0.70;;;;;;;19.49;nan;101072.06;4980222;28;20045;-75
2023/08/10 07:43:01;;;;;;;0.70;0.70;;;;;;;19.49;nan;101077.34;4981295;28;20139;-74
2023/08/10 07:45:26;;;;;;;0.60;0.60;;;;;;;19.49;nan;101073.84;4982223;28;21126;-75
2023/08/10 07:47:53;;;;;;;0.90;0.90;;;;;;;19.48;nan;101074.81;4982983;28;20184;-75
2023/08/10 07:50:18;;;;;;;0.85;0.75;;;;;;;19.49;nan;101074.72;4980546;28;20053;-74
2023/08/10 07:52:44;;;;;;;0.68;0.68;;;;;;;19.49;nan;101076.50;4980503;28;20120;-75
2023/08/10 07:55:11;;;;;;;0.80;0.70;;;;;;;19.49;nan;101076.50;4989545;28;20080;-75
2023/08/10 07:57:37;;;;;;;0.70;0.70;;;;;;;19.49;nan;101076.50;4982116;28;20465;-76
2023/08/10 08:00:05;;;;;;;0.55;0.55;;;;;;;19.50;nan;101080.81;4976981;28;20030;-75
2023/08/10 08:02:31;;;;;;;0.70;0.70;;;;;;;19.49;nan;101072.06;4984176;28;20029;-75
2023/08/10 08:04:57;;;;;;;0.77;0.77;;;;;;;19.50;nan;101075.53;4989337;28;20025;-75
2023/08/10 08:07:23;;;;;;;1.00;0.80;;;;;;;19.51;nan;101074.59;4963513;28;20034;-75
2023/08/10 08:09:48;;;;;;;0.55;0.55;;;;;;;19.50;nan;101078.19;4982093;28;20034;-76
2023/08/10 08:12:14;;;;;;;0.90;0.90;;;;;;;19.50;nan;101078.19;4980763;28;20470;-75
2023/08/10 08:14:39;;;;;;;0.60;0.60;;;;;;;19.50;nan;101071.13;4980240;28;20034;-75
2023/08/10 08:17:04;;;;;;;0.80;0.80;;;;;;;19.51;nan;101064.94;4981002;28;20149;-75
2023/08/10 08:19:30;;;;;;;0.70;0.70;;;;;;;19.51;nan;101070.22;4979508;28;20036;-75
2023/08/10 08:21:55;;;;;;;0.75;0.75;;;;;;;19.51;nan;101064.06;4983940;28;20915;-76
2023/08/10 08:24:20;;;;;;;0.80;0.80;;;;;;;19.51;nan;101058.81;4976450;28;20042;-76
2023/08/10 08:26:46;;;;;;;0.77;0.77;;;;;;;19.51;nan;101061.44;4980839;28;20045;-76
2023/08/10 08:29:11;;;;;;;0.73;0.73;;;;;;;19.51;nan;101064.06;4980985;28;20120;-76
2023/08/10 08:31:37;;;;;;;0.70;0.70;;;;;;;19.51;nan;101058.81;4979426;28;20648;-75
2023/08/10 08:34:03;;;;;;;0.65;0.65;;;;;;;19.52;nan;101063.16;4987562;28;20021;-75
2023/08/10 08:36:29;;;;;;;0.70;0.70;;;;;;;19.51;nan;101067.59;4981282;28;21540;-75
2023/08/10 08:38:54;;;;;;;0.60;0.60;;;;;;;19.51;nan;101061.44;4979468;28;20030;-75
2023/08/10 08:41:21;;;;;;;0.60;0.60;;;;;;;19.51;nan;101062.31;4979115;28;20666;-75
2023/08/10 08:43:47;;;;;;;0.80;0.80;;;;;;;19.52;nan;101060.53;4985649;28;20850;-77
2023/08/10 08:46:13;;;;;;;0.70;0.70;;;;;;;19.52;nan;101061.38;4974782;28;20777;-76
2023/08/10 08:48:38;;;;;;;0.70;0.70;;;;;;;19.51;nan;101059.69;4979735;28;20343;-76
2023/08/10 08:51:05;;;;;;;0.60;0.60;;;;;;;19.51;nan;101049.16;4981179;28;20097;-77
2023/08/10 08:53:31;;;;;;;0.90;0.90;;;;;;;19.51;nan;101058.81;4966620;28;20085;-75
2023/08/10 08:55:56;;;;;;;0.60;0.60;;;;;;;19.51;nan;101048.25;4976742;28;20034;-76
2023/08/10 08:58:21;;;;;;;0.70;0.70;;;;;;;19.51;nan;101049.16;4981584;28;20049;-75
2023/08/10 09:00:49;;;;;;;0.90;0.90;;;;;;;19.50;nan;101039.53;4982639;28;20116;-76
2023/08/10 09:03:17;;;;;;;0.70;0.70;;;;;;;19.51;nan;101043.00;4978384;28;20033;-76
2023/08/10 09:05:44;;;;;;;0.95;0.82;;;;;;;19.51;nan;101045.63;4984610;28;20026;-75
2023/08/10 09:08:09;;;;;;;0.82;0.82;;;;;;;19.51;nan;101043.88;4980452;28;20037;-75
2023/08/10 09:10:35;;;;;;;0.65;0.65;;;;;;;19.52;nan;101044.72;4979401;28;20042;-75
2023/08/10 09:13:11;;;;;;;1.33;0.90;;;;;;;19.51;nan;101043.00;4979702;28;20559;-75
2023/08/10 09:15:36;;;;;;;0.80;0.80;;;;;;;19.51;nan;101043.00;4990607;28;20026;-76
2023/08/10 09:18:04;;;;;;;0.70;0.70;;;;;;;19.50;nan;101039.53;4980764;28;20084;-76
2023/08/10 09:20:29;;;;;;;0.95;0.70;;;;;;;19.51;nan;101037.72;4980508;28;20974;-75
2023/08/10 09:22:57;;;;;;;0.80;0.80;;;;;;;19.51;nan;101037.72;4988599;28;20133;-76
2023/08/10 09:25:23;;;;;;;0.65;0.65;;;;;;;19.52;nan;101042.09;4992246;28;20026;-75
2023/08/10 09:27:49;;;;;;;0.80;0.80;;;;;;;19.51;nan;101032.47;4968218;28;20030;-75
2023/08/10 09:30:17;;;;;;;0.70;0.70;;;;;;;19.52;nan;101031.56;4985192;28;20030;-76
2023/08/10 09:32:43;;;;;;;0.60;0.60;;;;;;;19.51;nan;101033.34;4986214;28;20042;-76
2023/08/10 09:35:16;;;;;;;0.77;0.77;;;;;;;19.51;nan;101029.84;4989948;28;20044;-75
2023/08/10 09:37:41;;;;;;;0.60;0.60;;;;;;;19.51;nan;101017.53;4983609;28;20034;-75
2023/08/10 09:40:10;;;;;;;1.10;1.10;;;;;;;19.52;nan;101018.38;4967040;28;20104;-76
2023/08/10 09:42:36;;;;;;;0.70;0.70;;;;;;;19.51;nan;101011.41;4989952;28;20029;-76
2023/08/10 09:45:08;;;;;;;0.70;0.70;;;;;;;19.51;nan;101011.41;4989049;28;20847;-76
2023/08/10 09:47:36;;;;;;;0.60;0.60;;;;;;;19.52;nan;101007.84;4984450;28;20085;-76
2023/08/10 09:50:05;;;;;;;0.80;0.70;;;;;;;19.51;nan;101011.41;4983431;28;20807;-73
2023/08/10 09:52:31;;;;;;;0.70;0.70;;;;;;;19.51;nan;101009.63;4987357;28;20697;-75
2023/08/10 09:54:57;;;;;;;0.68;0.68;;;;;;;19.52;nan;101005.22;4990163;28;20038;-74
2023/08/10 09:57:24;;;;;;;0.85;0.85;;;;;;;19.52;nan;101007.84;4984616;28;20045;-75
2023/08/10 09:59:51;;;;;;;0.65;0.65;;;;;;;19.52;nan;101008.69;4984179;28;20033;-76
2023/08/10 10:02:17;;;;;;;0.80;0.80;;;;;;;19.52;nan;101013.13;4984241;28;21103;-75
2023/08/10 10:04:43;;;;;;;0.80;0.80;;;;;;;19.54;nan;101005.97;4973076;28;20025;-76
2023/08/10 10:07:11;;;;;;;0.70;0.70;;;;;;;19.52;nan;101008.69;4985543;28;20027;-74
2023/08/10 10:09:37;;;;;;;0.88;0.88;;;;;;;19.53;nan;101010.38;4982482;28;20045;-75
2023/08/10 10:12:06;;;;;;;0.90;0.90;;;;;;;19.52;nan;101003.44;4986120;28;20176;-76
2023/08/10 10:14:32;;;;;;;0.70;0.70;;;;;;;19.52;nan;101003.44;4990497;28;20057;-74
2023/08/10 10:16:59;;;;;;;0.73;0.73;;;;;;;19.52;nan;101002.59;4985366;28;20038;-76
2023/08/10 10:19:25;;;;;;;0.70;0.70;;;;;;;19.54;nan;101011.22;4966097;28;20034;-74
2023/08/10 10:21:50;;;;;;;0.70;0.70;;;;;;;19.54;nan;101003.31;4969421;28;20080;-74
2023/08/10 10:24:18;;;;;;;0.60;0.60;;;;;;;19.54;nan;101008.59;4991438;28;20117;-74
2023/08/10 10:26:59;;;;;;;0.80;0.80;;;;;;;19.55;nan;100997.09;4982236;28;20605;-75
2023/08/10 10:29:51;;;;;;;0.65;0.65;;;;;;;19.55;nan;100997.09;4983003;28;20034;-75
2023/08/10 10:32:21;;;;;;;0.70;0.70;;;;;;;19.55;nan;100994.47;4969148;28;20125;-75
2023/08/10 10:34:48;;;;;;;0.60;0.60;;;;;;;19.54;nan;100988.38;4987852;28;20052;-75
2023/08/10 10:37:21;;;;;;;0.75;0.75;;;;;;;19.54;nan;100982.25;4982239;28;20030;-75
2023/08/10 10:39:51;;;;;;;0.75;0.75;;;;;;;19.55;nan;100981.31;4982160;28;20120;-76
2023/08/10 10:42:17;;;;;;;0.68;0.68;;;;;;;19.55;nan;100976.88;4966607;28;20041;-76
2023/08/10 10:44:59;;;;;;;0.70;0.70;;;;;;;19.56;nan;100972.47;4987913;28;20038;-76
2023/08/10 10:47:38;;;;;;;0.60;0.60;;;;;;;19.55;nan;100970.78;4981549;28;20133;-77
2023/08/10 10:50:14;;;;;;;0.80;0.80;;;;;;;19.55;nan;100968.97;4981589;28;20034;-75
2023/08/10 10:52:40;;;;;;;0.80;0.80;;;;;;;19.56;nan;100961.94;4987580;28;20041;-75
2023/08/10 10:55:09;;;;;;;0.77;0.77;;;;;;;19.55;nan;100954.97;4983834;28;20033;-74
2023/08/10 10:58:09;;;;;;;0.80;0.80;;;;;;;19.56;nan;100959.28;4982302;28;20029;-76
2023/08/10 11:00:36;;;;;;;1.25;0.82;;;;;;;19.56;nan;100948.75;4981725;28;20580;-75
2023/08/10 11:03:06;;;;;;;0.70;0.70;;;;;;;19.56;nan;100948.75;4989518;28;20026;-74
2023/08/10 11:05:32;;;;;;;0.65;0.65;;;;;;;19.56;nan;100946.97;4984430;28;20136;-74
2023/08/10 11:08:03;;;;;;;0.70;0.70;;;;;;;19.56;nan;100951.38;4982408;28;20027;-75
2023/08/10 11:10:29;;;;;;;0.68;0.68;;;;;;;19.57;nan;100945.22;4980605;28;20125;-75
2023/08/10 11:12:55;;;;;;;0.90;0.90;;;;;;;19.57;nan;100940.78;4977634;28;20429;-76
2023/08/10 11:15:21;;;;;;;0.80;0.80;;;;;;;19.57;nan;100946.03;4978569;28;20026;-76
2023/08/10 11:17:48;;;;;;;0.68;0.68;;;;;;;19.57;nan;100939.94;4980021;28;20038;-75
2023/08/10 11:20:18;;;;;;;0.93;0.93;;;;;;;19.57;nan;100932.03;4979065;28;20077;-75
2023/08/10 11:22:51;;;;;;;0.70;0.70;;;;;;;19.57;nan;100937.31;4979310;28;20093;-76
2023/08/10 11:25:18;;;;;;;0.85;0.85;;;;;;;19.57;nan;100932.88;4984902;28;20498;-75
2023/08/10 11:27:48;;;;;;;1.05;1.02;;;;;;;19.57;nan;100926.78;4982321;28;20056;-75
2023/08/10 11:30:16;;;;;;;1.13;1.02;;;;;;;19.58;nan;100928.44;4981835;28;20033;-75
2023/08/10 11:32:45;;;;;;;1.98;1.77;;;;;;;19.58;nan;100928.44;4986771;28;20158;-75
2023/08/10 11:35:14;;;;;;;3.88;2.35;;;;;;;19.58;nan;100933.72;4968190;28;20058;-75
2023/08/10 11:37:41;;;;;;;6.43;3.75;;;;;;;19.58;nan;100929.31;4981369;28;20825;-75
2023/08/10 11:40:10;;;;;;;7.82;4.68;;;;;;;19.58;nan;100926.69;4980673;28;20034;-75
2023/08/10 11:42:36;;;;;;;8.30;4.88;;;;;;;19.58;nan;100925.81;4984049;28;20056;-75
2023/08/10 11:45:11;;;;;;;10.93;6.43;;;;;;;19.58;nan;100921.44;4985340;28;20526;-75